Time;durP1;ratioP1;P1;durP2;ratioP2;P2;SDS_P1;SDS_P2;PMS_P1;PMS_P2;Temp;Humidity;BMP_temperature;BMP_pressure;BME280_temperature;BME280_humidity;BME280_pressure;Samples;Min_cycle;Max_cycle;Signal;HPM_P1;HPM_P2
2022/10/11 00:01:12;;;;;;;13.30;8.50;;;;;;;10.92;68.80;101203.45;1785850;79;21097;-89
2022/10/11 00:03:39;;;;;;;12.73;8.65;;;;;;;10.81;68.79;101202.71;1771967;80;21100;-90
2022/10/11 00:06:07;;;;;;;13.68;8.85;;;;;;;10.72;68.86;101194.52;1797007;78;21108;-89
2022/10/11 00:08:34;;;;;;;15.68;8.55;;;;;;;10.60;68.98;101197.64;1786586;79;21741;-89
2022/10/11 00:11:04;;;;;;;15.40;8.95;;;;;;;10.49;69.05;101204.29;1799691;79;21124;-89
2022/10/11 00:13:31;;;;;;;14.03;7.90;;;;;;;10.38;69.20;101203.97;1793260;78;21347;-89
2022/10/11 00:15:57;;;;;;;13.38;8.38;;;;;;;10.29;69.34;101200.56;1780004;78;21034;-89
2022/10/11 00:18:25;;;;;;;12.95;9.30;;;;;;;10.19;69.44;101202.83;1789053;78;21101;-88
2022/10/11 00:21:00;;;;;;;14.03;9.00;;;;;;;10.11;69.54;101203.88;1794107;79;21713;-88
2022/10/11 00:23:27;;;;;;;15.18;8.88;;;;;;;10.02;69.69;101207.51;1770342;80;21018;-89
2022/10/11 00:26:00;;;;;;;19.67;10.70;;;;;;;9.92;69.84;101201.05;1789258;79;21100;-89
2022/10/11 00:28:27;;;;;;;19.55;9.90;;;;;;;9.83;69.93;101195.03;1777626;79;21717;-88
2022/10/11 00:30:54;;;;;;;16.17;10.28;;;;;;;9.76;70.12;101203.97;1759678;79;21023;-88
2022/10/11 00:33:20;;;;;;;15.08;10.32;;;;;;;9.67;70.23;101199.30;1802471;76;21711;-87
2022/10/11 00:35:48;;;;;;;13.60;9.28;;;;;;;9.60;70.42;101200.80;1827085;77;21566;-88
2022/10/11 00:38:15;;;;;;;12.58;9.33;;;;;;;9.53;70.51;101204.95;1830416;77;21071;-88
2022/10/11 00:40:42;;;;;;;14.65;9.48;;;;;;;9.47;70.68;101200.77;1818607;77;21406;-87
2022/10/11 00:43:18;;;;;;;18.23;9.45;;;;;;;9.43;70.84;101203.23;1823338;77;21046;-88
2022/10/11 00:45:59;;;;;;;15.30;9.03;;;;;;;9.38;70.95;101200.84;1826547;77;21688;-88
2022/10/11 00:48:42;;;;;;;15.23;10.00;;;;;;;9.32;71.09;101197.15;1822281;77;21023;-88
2022/10/11 00:51:20;;;;;;;14.87;9.60;;;;;;;9.29;71.25;101199.69;1825043;77;21743;-88
2022/10/11 00:53:47;;;;;;;16.70;10.00;;;;;;;9.23;71.41;101194.17;1803529;77;21031;-88
2022/10/11 00:56:22;;;;;;;18.07;10.35;;;;;;;9.19;71.57;101188.77;1826136;76;21372;-88
2022/10/11 00:58:48;;;;;;;17.37;9.80;;;;;;;9.17;71.70;101195.27;1832674;77;21761;-89
2022/10/11 01:03:41;;;;;;;16.00;10.70;;;;;;;9.14;72.04;101205.25;1809264;77;20884;-88
2022/10/11 01:06:09;;;;;;;19.32;10.55;;;;;;;9.12;72.13;101202.06;1832444;76;21026;-89
2022/10/11 01:08:36;;;;;;;18.10;10.50;;;;;;;9.12;72.24;101197.73;1808806;77;21003;-88
2022/10/11 01:11:02;;;;;;;28.42;18.48;;;;;;;9.12;72.33;101195.50;1809244;77;21744;-88
2022/10/11 01:14:02;;;;;;;25.72;20.43;;;;;;;9.13;72.45;101204.76;1809020;77;21513;-87
2022/10/11 01:16:50;;;;;;;25.57;19.02;;;;;;;9.16;72.56;101206.63;1808878;77;21536;-87
2022/10/11 01:19:58;;;;;;;28.10;24.35;;;;;;;9.18;72.60;101210.20;1808904;77;21090;-88
2022/10/11 01:22:47;;;;;;;26.02;19.12;;;;;;;9.21;72.70;101206.36;1808719;77;21058;-88
2022/10/11 01:25:25;;;;;;;29.48;18.60;;;;;;;9.24;72.76;101194.67;1809142;76;22581;-88
2022/10/11 01:28:29;;;;;;;24.65;17.75;;;;;;;9.29;72.84;101203.63;1808906;78;21690;-88
2022/10/11 01:31:04;;;;;;;20.23;15.68;;;;;;;9.31;72.87;101206.31;1809367;78;21540;-86
2022/10/11 01:33:52;;;;;;;17.12;11.70;;;;;;;9.35;72.96;101208.21;1807106;77;21030;-86
2022/10/11 01:36:38;;;;;;;16.20;11.55;;;;;;;9.40;73.06;101219.77;1801288;78;21022;-86
2022/10/11 01:39:11;;;;;;;16.42;11.68;;;;;;;9.44;73.18;101220.37;1801435;78;20987;-87
2022/10/11 01:41:42;;;;;;;21.57;12.60;;;;;;;9.50;73.27;101216.66;1805836;78;21598;-86
2022/10/11 01:44:10;;;;;;;16.90;11.80;;;;;;;9.57;73.25;101219.50;1801745;78;21041;-88
2022/10/11 01:46:37;;;;;;;16.93;11.70;;;;;;;9.64;73.36;101214.95;1801580;78;21038;-86
2022/10/11 01:49:04;;;;;;;19.23;12.25;;;;;;;9.71;73.39;101216.53;1801485;78;21124;-86
2022/10/11 01:51:34;;;;;;;19.98;12.88;;;;;;;9.79;73.39;101216.80;1801242;78;21723;-82
2022/10/11 01:54:26;;;;;;;19.12;12.88;;;;;;;9.87;73.45;101219.30;1801265;78;21003;-82
2022/10/11 01:57:21;;;;;;;18.45;12.13;;;;;;;9.93;73.48;101219.52;1759046;78;21042;-82
2022/10/11 02:00:11;;;;;;;17.35;11.83;;;;;;;10.00;73.47;101214.03;1824443;77;22229;-83
2022/10/11 02:03:17;;;;;;;19.87;12.58;;;;;;;10.08;73.51;101214.32;1799741;78;21011;-83
2022/10/11 02:06:12;;;;;;;17.62;12.33;;;;;;;10.14;73.52;101215.84;1802122;78;21733;-83
2022/10/11 02:09:14;;;;;;;17.27;11.97;;;;;;;10.21;73.56;101211.66;1736192;77;21088;-82
2022/10/11 02:11:41;;;;;;;19.57;12.45;;;;;;;10.25;73.62;101210.52;1774563;79;21085;-82
2022/10/11 02:14:21;;;;;;;17.10;11.85;;;;;;;10.30;73.59;101213.28;1758732;80;21121;-82
2022/10/11 02:16:54;;;;;;;19.77;12.65;;;;;;;10.33;73.62;101217.38;1771892;80;21076;-81
2022/10/11 02:19:24;;;;;;;20.32;12.53;;;;;;;10.37;73.70;101214.44;1774572;80;21784;-81
2022/10/11 02:21:54;;;;;;;17.67;12.30;;;;;;;10.40;73.66;101218.06;1774510;80;21088;-81
2022/10/11 02:24:26;;;;;;;17.00;12.40;;;;;;;10.43;73.61;101223.84;1774609;80;21080;-81
2022/10/11 02:26:53;;;;;;;19.20;13.20;;;;;;;10.41;73.59;101223.78;1769442;80;21069;-81
2022/10/11 02:29:20;;;;;;;20.88;12.30;;;;;;;10.37;73.55;101214.00;1682039;83;21074;-81
2022/10/11 02:31:47;;;;;;;20.32;12.88;;;;;;;10.32;73.56;101222.16;1740141;80;21726;-81
2022/10/11 02:34:19;;;;;;;17.48;12.70;;;;;;;10.30;73.59;101221.18;1761917;80;21098;-82
2022/10/11 02:37:29;;;;;;;18.98;12.43;;;;;;;10.24;73.65;101221.87;1790634;80;21039;-81
2022/10/11 02:40:10;;;;;;;20.82;12.60;;;;;;;10.19;73.71;101224.79;1790669;80;21207;-81
2022/10/11 02:42:44;;;;;;;21.23;13.72;;;;;;;10.14;73.75;101227.67;1750857;81;21088;-82
2022/10/11 02:45:36;;;;;;;22.73;13.75;;;;;;;10.05;73.71;101240.51;1717101;82;21726;-82
2022/10/11 02:48:04;;;;;;;23.47;14.78;;;;;;;9.96;73.82;101241.49;1687827;83;21093;-81
2022/10/11 02:50:31;;;;;;;22.75;15.30;;;;;;;9.95;74.18;101239.69;1736418;82;21495;-82
2022/10/11 02:52:58;;;;;;;19.80;12.93;;;;;;;9.95;74.29;101239.30;1726504;82;21160;-81
2022/10/11 02:55:24;;;;;;;27.20;17.77;;;;;;;9.96;74.37;101248.95;1744399;82;21084;-81
2022/10/11 02:57:51;;;;;;;23.50;16.42;;;;;;;9.97;74.35;101253.81;1723895;82;21830;-81
2022/10/11 03:00:18;;;;;;;19.40;14.13;;;;;;;9.91;74.29;101255.38;1728834;82;21049;-82
2022/10/11 03:02:45;;;;;;;18.73;13.60;;;;;;;9.83;74.32;101252.88;1716607;82;21087;-81
2022/10/11 03:05:12;;;;;;;15.43;12.43;;;;;;;9.78;74.35;101253.16;1723517;82;21713;-82
2022/10/11 03:07:39;;;;;;;22.65;13.50;;;;;;;9.71;74.45;101257.28;1744452;82;21041;-81
2022/10/11 03:10:06;;;;;;;20.00;12.25;;;;;;;9.68;74.60;101260.21;1736862;81;21775;-82
2022/10/11 03:12:33;;;;;;;17.80;12.98;;;;;;;9.65;74.83;101261.44;1714593;82;21550;-81
2022/10/11 03:15:00;;;;;;;19.23;13.28;;;;;;;9.60;74.83;101259.05;1735556;82;21135;-81
2022/10/11 03:17:27;;;;;;;20.20;12.90;;;;;;;9.53;74.97;101260.14;1722515;81;21100;-81
2022/10/11 03:19:54;;;;;;;20.85;13.95;;;;;;;9.49;75.08;101262.16;1769108;77;21426;-81
2022/10/11 03:22:21;;;;;;;18.87;13.78;;;;;;;9.49;75.37;101258.64;1821767;77;22866;-82
2022/10/11 03:24:48;;;;;;;18.75;12.82;;;;;;;9.56;75.91;101264.60;1818389;77;20986;-83
2022/10/11 03:27:14;;;;;;;16.57;12.20;;;;;;;9.64;75.99;101274.09;1808841;77;21517;-81
2022/10/11 03:29:41;;;;;;;20.55;12.35;;;;;;;9.72;76.32;101268.68;1808655;76;21286;-81
2022/10/11 03:32:08;;;;;;;17.45;11.12;;;;;;;9.82;76.61;101276.08;1808761;77;21584;-81
2022/10/11 03:34:35;;;;;;;16.80;10.45;;;;;;;9.90;76.98;101273.73;1805568;77;21730;-81
2022/10/11 03:37:02;;;;;;;15.38;9.75;;;;;;;10.03;76.98;101277.27;1759854;81;21136;-81
2022/10/11 03:39:29;;;;;;;16.48;10.00;;;;;;;10.07;77.01;101274.33;1731382;81;21081;-82
2022/10/11 03:41:56;;;;;;;12.80;9.05;;;;;;;10.08;77.09;101280.97;1730900;81;21121;-81
2022/10/11 03:44:23;;;;;;;15.98;9.13;;;;;;;10.08;77.11;101284.02;1731262;81;21058;-83
2022/10/11 03:46:49;;;;;;;12.45;8.35;;;;;;;10.08;77.25;101286.22;1751313;80;21767;-82
2022/10/11 03:49:16;;;;;;;10.53;7.62;;;;;;;10.09;77.36;101284.48;1754753;81;21124;-82
2022/10/11 03:51:43;;;;;;;15.00;7.70;;;;;;;10.10;77.44;101288.48;1754879;81;21125;-82
2022/10/11 03:54:10;;;;;;;12.85;7.65;;;;;;;10.11;77.53;101282.36;1760411;81;21046;-83
2022/10/11 03:56:37;;;;;;;10.95;6.60;;;;;;;10.12;77.68;101293.38;1739090;81;21068;-82
2022/10/11 03:59:04;;;;;;;8.18;5.80;;;;;;;10.16;77.63;101292.19;1757436;81;22614;-83
2022/10/11 04:01:36;;;;;;;11.22;6.37;;;;;;;10.13;77.65;101299.52;1734617;81;21054;-82
2022/10/11 04:04:00;;;;;;;9.30;5.80;;;;;;;10.15;77.71;101308.80;1755190;81;21057;-82
2022/10/11 04:06:26;;;;;;;7.42;5.15;;;;;;;10.17;77.84;101314.57;1748311;81;21109;-83
2022/10/11 04:08:53;;;;;;;10.53;5.35;;;;;;;10.22;77.97;101306.86;1755881;80;21627;-83
2022/10/11 04:11:20;;;;;;;9.55;5.03;;;;;;;10.26;77.92;101310.06;1756299;80;21742;-83
2022/10/11 04:13:47;;;;;;;8.15;4.67;;;;;;;10.27;77.89;101315.39;1750588;81;21800;-84
2022/10/11 04:16:13;;;;;;;7.45;4.45;;;;;;;10.30;77.87;101315.91;1747987;81;21069;-83
2022/10/11 04:18:40;;;;;;;9.83;3.98;;;;;;;10.30;77.89;101317.22;1748559;80;21129;-83
2022/10/11 04:21:07;;;;;;;9.58;3.90;;;;;;;10.35;77.85;101326.22;1746377;81;21175;-84
2022/10/11 04:23:34;;;;;;;7.20;3.75;;;;;;;10.38;77.88;101322.39;1753822;81;21784;-80
2022/10/11 04:26:06;;;;;;;8.05;3.75;;;;;;;10.39;77.79;101328.11;1761219;81;21452;-84
2022/10/11 04:28:33;;;;;;;10.23;3.67;;;;;;;10.40;77.77;101327.67;1751707;80;21619;-82
2022/10/11 04:30:59;;;;;;;6.72;3.50;;;;;;;10.42;77.84;101336.55;1763827;81;21068;-82
2022/10/11 04:33:26;;;;;;;6.92;3.95;;;;;;;10.47;77.93;101334.55;1743351;81;21356;-83
2022/10/11 04:35:54;;;;;;;7.45;3.10;;;;;;;10.51;77.82;101336.88;1744178;81;22674;-83
2022/10/11 04:38:23;;;;;;;7.60;3.67;;;;;;;10.52;77.74;101340.39;1746209;81;21069;-83
2022/10/11 04:40:50;;;;;;;8.30;2.90;;;;;;;10.51;77.69;101348.72;1762387;79;21082;-84
2022/10/11 04:43:17;;;;;;;7.85;2.90;;;;;;;10.50;77.71;101358.76;1756233;81;21054;-85
2022/10/11 04:45:44;;;;;;;5.67;2.65;;;;;;;10.49;77.78;101353.92;1750667;79;21074;-86
2022/10/11 04:48:12;;;;;;;9.78;2.87;;;;;;;10.51;77.73;101359.25;1770894;79;21847;-83
2022/10/11 04:50:39;;;;;;;4.05;2.65;;;;;;;10.54;77.68;101367.66;1763987;80;21035;-84
2022/10/11 04:53:06;;;;;;;10.53;2.80;;;;;;;10.52;77.70;101371.98;1767071;79;21111;-82
2022/10/11 04:55:33;;;;;;;6.62;3.00;;;;;;;10.55;77.85;101374.30;1753720;81;21178;-81
2022/10/11 04:58:01;;;;;;;7.60;2.85;;;;;;;10.58;77.88;101380.08;1766256;80;21066;-82
2022/10/11 05:00:29;;;;;;;4.37;2.22;;;;;;;10.63;78.04;101384.66;1741390;79;21970;-82
2022/10/11 05:02:56;;;;;;;7.62;2.62;;;;;;;10.66;77.83;101387.81;1740230;81;21045;-83
2022/10/11 05:05:23;;;;;;;6.22;2.40;;;;;;;10.66;77.78;101387.41;1761065;79;21015;-84
2022/10/11 05:07:50;;;;;;;8.40;2.50;;;;;;;10.65;77.67;101389.56;1756611;80;21031;-85
2022/10/11 05:10:17;;;;;;;5.05;2.35;;;;;;;10.62;77.64;101392.50;1769723;81;21045;-92
2022/10/11 05:12:50;;;;;;;6.55;2.20;;;;;;;10.62;77.75;101396.45;1770532;81;21743;-93
2022/10/11 05:15:17;;;;;;;5.08;2.40;;;;;;;10.64;77.69;101399.63;1762342;80;21047;-92
2022/10/11 05:17:44;;;;;;;8.33;2.20;;;;;;;10.65;77.63;101409.30;1753364;80;21050;-90
2022/10/11 05:20:11;;;;;;;4.95;2.08;;;;;;;10.64;77.57;101414.52;1751811;81;21019;-88
2022/10/11 05:22:38;;;;;;;7.22;2.02;;;;;;;10.66;77.55;101417.70;1758690;80;21051;-87
2022/10/11 05:25:05;;;;;;;3.85;1.80;;;;;;;10.66;77.46;101419.41;1767779;79;21801;-88
2022/10/11 05:27:32;;;;;;;7.08;1.90;;;;;;;10.64;77.41;101422.41;1744493;80;21046;-88
2022/10/11 05:30:08;;;;;;;10.08;2.30;;;;;;;10.63;77.35;101428.11;1744443;81;21109;-88
2022/10/11 05:32:37;;;;;;;6.60;2.55;;;;;;;10.63;77.34;101441.70;1765256;81;21103;-88
2022/10/11 05:35:05;;;;;;;5.55;1.77;;;;;;;10.62;77.45;101436.86;1748434;81;21535;-88
2022/10/11 05:37:32;;;;;;;6.80;2.10;;;;;;;10.64;77.45;101437.81;1784180;79;21844;-88
2022/10/11 05:39:59;;;;;;;11.20;2.20;;;;;;;10.67;77.36;101453.70;1799288;79;21232;-88
2022/10/11 05:42:26;;;;;;;7.45;2.42;;;;;;;10.68;77.31;101456.82;1800348;79;21093;-89
2022/10/11 05:44:53;;;;;;;8.93;2.00;;;;;;;10.72;77.29;101456.91;1782634;79;21045;-88
2022/10/11 05:47:20;;;;;;;8.05;1.95;;;;;;;10.75;77.22;101467.13;1798640;78;21043;-88
2022/10/11 05:49:46;;;;;;;9.05;2.10;;;;;;;10.80;77.16;101475.21;1801970;79;22307;-89
2022/10/11 05:52:18;;;;;;;6.28;2.50;;;;;;;10.82;77.04;101478.36;1803156;78;21113;-88
2022/10/11 05:54:42;;;;;;;11.50;2.62;;;;;;;10.86;76.98;101480.69;1796434;79;21055;-88
2022/10/11 05:57:09;;;;;;;10.43;2.83;;;;;;;10.89;76.92;101483.02;1798897;79;21579;-88
2022/10/11 05:59:35;;;;;;;5.60;1.72;;;;;;;10.93;76.80;101481.39;1801189;78;21017;-84
2022/10/11 06:02:03;;;;;;;15.35;2.60;;;;;;;10.98;76.74;101484.17;1773410;79;21742;-84
2022/10/11 06:04:29;;;;;;;10.38;2.12;;;;;;;10.98;76.65;101485.09;1795858;79;21049;-84
2022/10/11 06:06:57;;;;;;;9.03;2.87;;;;;;;11.04;76.61;101492.31;1773188;79;21038;-87
2022/10/11 06:09:24;;;;;;;9.53;2.33;;;;;;;11.05;76.50;101496.28;1773658;79;21132;-88
2022/10/11 06:11:50;;;;;;;7.53;2.27;;;;;;;11.09;76.42;101505.20;1773614;78;21049;-88
2022/10/11 06:14:17;;;;;;;9.65;2.52;;;;;;;11.12;76.37;101503.11;1773523;79;21720;-88
2022/10/11 06:16:44;;;;;;;13.10;3.58;;;;;;;11.15;76.32;101510.70;1773435;78;21594;-88
2022/10/11 06:19:12;;;;;;;11.70;2.50;;;;;;;11.18;76.32;101514.74;1773407;79;21102;-87
2022/10/11 06:21:38;;;;;;;13.28;2.60;;;;;;;11.20;76.26;101514.80;1773757;79;21077;-85
2022/10/11 06:24:08;;;;;;;8.70;2.50;;;;;;;11.24;76.22;101520.65;1773496;79;21605;-85
2022/10/11 06:26:35;;;;;;;8.73;2.35;;;;;;;11.27;76.11;101523.41;1773411;78;21380;-89
2022/10/11 06:29:01;;;;;;;11.73;2.70;;;;;;;11.32;76.06;101527.50;1773427;78;21067;-88
2022/10/11 06:31:28;;;;;;;11.03;2.83;;;;;;;11.36;76.01;101527.67;1794376;78;21019;-85
2022/10/11 06:33:55;;;;;;;11.15;2.30;;;;;;;11.40;75.92;101533.95;1782949;78;21030;-88
2022/10/11 06:36:22;;;;;;;13.28;2.60;;;;;;;11.43;75.81;101544.58;1786957;76;21069;-89
2022/10/11 06:38:53;;;;;;;14.28;2.67;;;;;;;11.46;75.67;101553.48;1773270;79;21766;-89
2022/10/11 06:41:26;;;;;;;10.38;3.20;;;;;;;11.50;75.63;101557.56;1789828;78;21049;-85
2022/10/11 06:43:53;;;;;;;15.03;2.98;;;;;;;11.53;75.54;101548.02;1799862;78;21081;-85
2022/10/11 06:46:21;;;;;;;11.90;2.60;;;;;;;11.57;75.46;101556.93;1765001;79;21121;-85
2022/10/11 06:48:47;;;;;;;13.60;2.65;;;;;;;11.62;75.37;101555.36;1802626;79;21053;-85
2022/10/11 06:51:17;;;;;;;14.18;3.50;;;;;;;11.65;75.21;101568.62;1758466;80;21225;-88
2022/10/11 06:53:54;;;;;;;12.05;3.27;;;;;;;11.65;75.00;101569.50;1772888;79;21037;-89
2022/10/11 06:56:21;;;;;;;18.42;3.62;;;;;;;11.66;75.00;101573.06;1785728;78;22276;-88
2022/10/11 06:58:49;;;;;;;10.90;3.10;;;;;;;11.67;74.93;101576.16;1798520;79;21554;-89
2022/10/11 07:01:18;;;;;;;10.63;3.10;;;;;;;11.70;74.86;101590.78;1800582;78;21073;-89
2022/10/11 07:03:45;;;;;;;13.53;2.98;;;;;;;11.71;74.73;101587.70;1787653;79;21742;-89
2022/10/11 07:06:14;;;;;;;14.33;2.83;;;;;;;11.73;74.62;101594.85;1781321;79;21057;-90
2022/10/11 07:08:43;;;;;;;16.37;3.02;;;;;;;11.76;74.61;101590.09;1773173;78;21089;-90
2022/10/11 07:11:16;;;;;;;13.75;2.87;;;;;;;11.79;74.48;101597.69;1773427;78;21080;-88
2022/10/11 07:13:45;;;;;;;11.15;3.30;;;;;;;11.83;74.40;101602.64;1793553;78;21077;-89
2022/10/11 07:16:12;;;;;;;13.13;3.52;;;;;;;11.85;74.26;101604.47;1742240;80;21702;-89
2022/10/11 07:18:39;;;;;;;11.03;2.80;;;;;;;11.90;74.20;101609.03;1772885;78;21459;-89
2022/10/11 07:21:08;;;;;;;12.80;2.90;;;;;;;11.95;74.07;101612.30;1773372;79;21053;-89
2022/10/11 07:23:35;;;;;;;11.05;2.52;;;;;;;11.98;73.99;101614.17;1773341;78;21112;-89
2022/10/11 07:26:01;;;;;;;12.28;3.45;;;;;;;12.02;73.89;101621.33;1789610;79;21068;-90
2022/10/11 07:28:29;;;;;;;11.20;3.35;;;;;;;12.05;73.61;101628.93;1779263;78;21769;-89
2022/10/11 07:30:57;;;;;;;13.80;3.72;;;;;;;12.07;73.55;101627.66;1773172;79;21061;-89
2022/10/11 07:33:23;;;;;;;16.02;3.17;;;;;;;12.11;73.50;101625.59;1795838;78;21057;-89
2022/10/11 07:35:50;;;;;;;11.73;3.15;;;;;;;12.14;73.39;101626.99;1773552;79;21069;-88
2022/10/11 07:38:20;;;;;;;12.65;3.45;;;;;;;12.18;73.16;101630.63;1772995;79;21653;-89
2022/10/11 07:40:46;;;;;;;12.95;3.52;;;;;;;12.21;73.14;101623.70;1782452;79;22617;-90
2022/10/11 07:43:20;;;;;;;15.48;3.37;;;;;;;12.26;72.94;101634.44;1786028;79;21038;-85
2022/10/11 07:45:47;;;;;;;13.50;2.98;;;;;;;12.32;72.88;101630.66;1757900;79;21006;-89
2022/10/11 07:48:14;;;;;;;17.70;3.83;;;;;;;12.36;72.65;101638.26;1751873;80;21100;-85
2022/10/11 07:50:41;;;;;;;13.20;3.15;;;;;;;12.38;72.49;101642.73;1796097;79;21077;-85
2022/10/11 07:53:08;;;;;;;14.30;3.72;;;;;;;12.42;72.37;101648.58;1804407;76;21725;-85
2022/10/11 07:55:39;;;;;;;15.25;3.35;;;;;;;12.45;72.19;101651.33;1787872;78;21053;-85
2022/10/11 07:58:09;;;;;;;13.60;3.00;;;;;;;12.48;71.91;101645.66;1779571;79;21050;-85
2022/10/11 08:00:36;;;;;;;12.70;2.83;;;;;;;12.50;71.70;101652.81;1787375;78;21099;-85
2022/10/11 08:03:04;;;;;;;18.37;3.27;;;;;;;12.53;71.39;101655.95;1778407;79;21539;-85
2022/10/11 08:05:32;;;;;;;13.95;3.22;;;;;;;12.56;71.18;101658.70;1790518;79;21727;-85
2022/10/11 08:07:59;;;;;;;18.23;4.05;;;;;;;12.61;71.20;101658.40;1797956;78;21037;-85
2022/10/11 08:10:26;;;;;;;16.15;3.00;;;;;;;12.68;71.10;101667.00;1793114;79;21190;-89
2022/10/11 08:12:53;;;;;;;11.05;2.95;;;;;;;12.72;70.70;101664.91;1795597;79;21105;-89
2022/10/11 08:15:20;;;;;;;13.65;2.83;;;;;;;12.75;70.69;101677.34;1773623;79;21018;-90
2022/10/11 08:17:47;;;;;;;13.55;3.17;;;;;;;12.77;70.32;101663.75;1773800;79;21726;-87
2022/10/11 08:20:31;;;;;;;;;;;;;;;;;;;;;
2022/10/11 08:22:53;;;;;;;11.35;2.67;;;;;;;12.80;70.35;101662.10;1823402;78;21005;-85
2022/10/11 08:25:20;;;;;;;13.43;3.05;;;;;;;12.89;70.39;101672.47;1777197;79;21055;-85
2022/10/11 08:27:46;;;;;;;13.75;3.00;;;;;;;12.96;70.15;101672.69;1770144;80;21100;-85
2022/10/11 08:30:14;;;;;;;17.27;3.02;;;;;;;13.05;69.90;101671.20;1781375;79;21333;-85
2022/10/11 08:32:43;;;;;;;12.25;3.12;;;;;;;13.10;69.79;101680.13;1787534;78;21619;-85
2022/10/11 08:35:10;;;;;;;10.20;2.65;;;;;;;13.13;69.66;101679.80;1780312;79;21559;-85
2022/10/11 08:37:37;;;;;;;14.20;3.42;;;;;;;13.17;69.54;101679.03;1820914;77;21023;-85
2022/10/11 08:40:06;;;;;;;9.45;3.22;;;;;;;13.22;69.40;101684.47;1841657;77;21255;-85
2022/10/11 08:42:44;;;;;;;12.13;2.60;;;;;;;13.25;68.72;101684.58;1840827;76;22440;-90
2022/10/11 08:45:34;;;;;;;13.40;2.60;;;;;;;13.27;68.63;101680.63;1817028;77;21058;-85
2022/10/11 08:48:35;;;;;;;8.95;2.33;;;;;;;13.30;68.30;101700.16;1803004;77;21062;-85
2022/10/11 08:51:22;;;;;;;11.85;3.17;;;;;;;13.35;68.07;101709.13;1677048;81;21086;-88
2022/10/11 08:54:12;;;;;;;12.82;2.80;;;;;;;13.37;67.87;101708.74;1772119;79;21069;-87
2022/10/11 08:56:42;;;;;;;12.85;3.10;;;;;;;13.41;67.89;101713.70;1741811;81;22574;-87
2022/10/11 08:59:33;;;;;;;10.93;2.67;;;;;;;13.42;67.55;101715.50;1739823;81;21086;-89
2022/10/11 09:02:25;;;;;;;13.83;2.83;;;;;;;13.39;67.26;101711.00;1712664;82;21165;-86
2022/10/11 09:04:53;;;;;;;11.30;2.65;;;;;;;13.36;67.17;101713.58;1711401;83;21587;-84
2022/10/11 09:07:43;;;;;;;15.85;2.90;;;;;;;13.34;67.12;101715.25;1743864;80;21078;-83
2022/10/11 09:10:32;;;;;;;17.27;3.98;;;;;;;13.37;66.99;101714.47;1773774;80;21763;-84
2022/10/11 09:13:34;;;;;;;15.75;3.10;;;;;;;13.40;67.02;101714.13;1774915;79;21065;-87
2022/10/11 09:16:24;;;;;;;17.02;2.90;;;;;;;13.47;66.92;101718.27;1794318;79;21065;-88
2022/10/11 09:19:26;;;;;;;14.25;3.27;;;;;;;13.53;66.84;101722.00;1746886;80;21062;-88
2022/10/11 09:22:04;;;;;;;13.68;3.42;;;;;;;13.60;66.43;101725.70;1758310;80;21073;-88
2022/10/11 09:24:49;;;;;;;16.23;3.15;;;;;;;13.65;66.29;101726.73;1743341;81;21698;-87
2022/10/11 09:27:22;;;;;;;12.15;3.60;;;;;;;13.74;66.09;101730.03;1775568;80;21101;-88
2022/10/11 09:29:59;;;;;;;12.37;2.65;;;;;;;13.83;65.50;101730.73;1775408;80;21042;-88
2022/10/11 09:32:37;;;;;;;11.03;2.52;;;;;;;13.90;65.37;101724.75;1748404;79;21118;-87
2022/10/11 09:35:19;;;;;;;13.83;3.62;;;;;;;14.05;64.93;101735.73;1743124;81;21744;-87
2022/10/11 09:37:57;;;;;;;10.40;2.85;;;;;;;14.20;64.97;101733.48;1743667;79;21797;-87
2022/10/11 09:40:59;;;;;;;12.90;2.70;;;;;;;14.41;64.99;101732.24;1741119;81;21054;-87
2022/10/11 09:43:26;;;;;;;14.60;2.70;;;;;;;14.51;64.57;101739.58;1771223;79;22028;-88
2022/10/11 09:45:53;;;;;;;11.43;2.83;;;;;;;14.47;63.97;101743.02;1773537;78;21049;-87
2022/10/11 09:48:29;;;;;;;11.25;2.58;;;;;;;14.42;63.66;101740.67;1777263;79;21057;-88
2022/10/11 09:51:05;;;;;;;8.18;2.70;;;;;;;14.41;63.81;101736.66;1794230;79;21098;-87
2022/10/11 09:53:59;;;;;;;9.25;2.65;;;;;;;14.47;63.86;101744.74;1775900;79;21143;-87
2022/10/11 09:56:29;;;;;;;;;;;;;;;14.55;63.95;101749.83;1780118;78;21049;-88
2022/10/11 09:59:22;;;;;;;11.03;2.50;;;;;;;14.64;63.14;101754.47;1777987;79;20330;-87
2022/10/11 10:01:51;;;;;;;9.40;2.40;;;;;;;14.69;62.98;101756.38;1764243;79;21105;-87
2022/10/11 10:04:17;;;;;;;12.70;2.47;;;;;;;14.77;62.76;101761.85;1741561;81;22126;-88
2022/10/11 10:06:44;;;;;;;6.45;2.35;;;;;;;14.84;62.53;101767.77;1764746;79;21054;-87
2022/10/11 10:09:29;;;;;;;11.22;3.20;;;;;;;14.95;62.46;101766.70;1764265;79;21422;-87
2022/10/11 10:11:56;;;;;;;10.03;2.85;;;;;;;15.06;62.25;101770.94;1773291;79;21646;-87
2022/10/11 10:14:26;;;;;;;11.68;2.90;;;;;;;15.31;61.85;101779.00;1775407;79;21136;-87
2022/10/11 10:17:02;;;;;;;11.10;3.35;;;;;;;15.55;61.68;101779.53;1764518;79;21774;-86
2022/10/11 10:19:28;;;;;;;10.65;2.47;;;;;;;15.87;61.58;101778.44;1762177;79;21054;-87
2022/10/11 10:21:55;;;;;;;11.63;3.40;;;;;;;16.10;61.07;101782.44;1789052;78;21054;-87
2022/10/11 10:24:38;;;;;;;15.55;3.52;;;;;;;16.27;60.96;101791.12;1781079;78;21042;-87
2022/10/11 10:27:19;;;;;;;9.65;2.37;;;;;;;16.52;60.84;101786.72;1766242;78;21109;-87
2022/10/11 10:30:13;;;;;;;13.45;3.52;;;;;;;16.79;60.38;101788.48;1764809;78;21899;-88
2022/10/11 10:33:05;;;;;;;9.43;2.58;;;;;;;16.98;59.95;101789.25;1778004;78;21066;-87
2022/10/11 10:35:45;;;;;;;8.68;2.45;;;;;;;16.95;58.42;101796.28;1766448;78;21062;-87
2022/10/11 10:38:30;;;;;;;9.50;3.05;;;;;;;16.66;57.71;101803.33;1774937;79;21053;-88
2022/10/11 10:41:05;;;;;;;12.15;2.75;;;;;;;16.19;56.59;101816.67;1763102;78;21056;-87
2022/10/11 10:43:34;;;;;;;10.40;2.85;;;;;;;15.64;56.89;101818.64;1765361;78;21832;-88
2022/10/11 10:46:12;;;;;;;15.32;3.80;;;;;;;15.27;56.98;101815.17;1806946;77;21080;-88
2022/10/11 10:48:50;;;;;;;14.93;3.12;;;;;;;15.09;56.98;101828.92;1783087;78;21057;-84
2022/10/11 10:52:05;;;;;;;13.48;3.60;;;;;;;15.03;57.12;101828.75;1788030;79;21085;-88
2022/10/11 10:54:47;;;;;;;15.10;3.02;;;;;;;15.00;57.29;101830.02;1776071;79;21042;-88
2022/10/11 10:57:18;;;;;;;12.73;3.30;;;;;;;14.91;57.37;101833.77;1802241;77;21722;-87
2022/10/11 11:00:00;;;;;;;16.05;3.47;;;;;;;14.88;57.60;101832.36;1788508;77;21527;-84
2022/10/11 11:03:04;;;;;;;15.23;4.33;;;;;;;14.79;57.51;101833.05;1808104;76;21049;-89
2022/10/11 11:05:56;;;;;;;11.10;2.95;;;;;;;14.63;57.55;101843.67;1807950;78;21076;-87
2022/10/11 11:09:05;;;;;;;13.03;2.83;;;;;;;14.45;57.69;101850.70;1778074;77;21060;-88
2022/10/11 11:12:19;;;;;;;14.73;3.77;;;;;;;14.29;57.95;101841.42;1776255;78;21758;-88
2022/10/11 11:15:22;;;;;;;12.78;3.72;;;;;;;14.20;57.73;101839.84;1785240;77;21426;-88
2022/10/11 11:18:06;;;;;;;15.13;3.45;;;;;;;14.05;57.59;101835.02;1796317;78;21010;-89
2022/10/11 11:20:53;;;;;;;;;;;;;;;13.92;57.78;101841.70;1779502;79;21135;-88
2022/10/11 11:23:34;;;;;;;18.42;2.98;;;;;;;13.82;57.39;101844.95;1776351;78;20252;-88
2022/10/11 11:26:30;;;;;;;15.03;3.67;;;;;;;13.74;57.53;101847.37;1758303;79;21151;-87
2022/10/11 11:29:20;;;;;;;7.22;2.20;;;;;;;13.67;57.63;101852.02;1773106;78;21626;-87
2022/10/11 11:32:10;;;;;;;16.20;3.22;;;;;;;13.71;57.83;101852.57;1776491;77;21081;-88
2022/10/11 11:34:54;;;;;;;13.43;3.95;;;;;;;13.94;57.97;101857.64;1775884;79;21077;-88
2022/10/11 11:37:35;;;;;;;12.58;2.77;;;;;;;14.16;57.70;101848.56;1789206;77;21018;-88
2022/10/11 11:40:37;;;;;;;13.43;3.60;;;;;;;14.29;57.75;101850.69;1823505;76;21785;-88
2022/10/11 11:43:25;;;;;;;13.08;3.12;;;;;;;14.29;57.50;101848.05;1807209;77;21042;-88
2022/10/11 11:45:59;;;;;;;11.93;3.17;;;;;;;14.19;57.49;101845.58;1801413;78;21018;-88
2022/10/11 11:48:26;;;;;;;13.25;3.12;;;;;;;14.28;57.75;101855.50;1800780;78;21030;-89
2022/10/11 11:51:04;;;;;;;13.53;3.20;;;;;;;14.32;57.76;101853.84;1759580;78;21064;-88